Time;durP1;ratioP1;P1;durP2;ratioP2;P2;SDS_P1;SDS_P2;PMS_P1;PMS_P2;Temp;Humidity;BMP_temperature;BMP_pressure;BME280_temperature;BME280_humidity;BME280_pressure;Samples;Min_cycle;Max_cycle;Signal;HPM_P1;HPM_P2
2023/01/10 00:00:40;;;;;;;;;;;1.50;99.90;;;;;;5096708;28;19978;-76
2023/01/10 00:03:07;;;;;;;;;;;1.50;99.90;;;;;;5096858;28;20433;-77
2023/01/10 00:05:33;;;;;;;;;;;1.50;99.90;;;;;;5096986;28;19915;-77
2023/01/10 00:07:58;;;;;;;;;;;1.50;99.90;;;;;;5095599;28;19908;-77
2023/01/10 00:10:24;;;;;;;;;;;1.50;99.90;;;;;;5096688;28;19918;-77
2023/01/10 00:15:35;;;;;;;;;;;1.50;99.90;;;;;;5096844;28;19935;-76
2023/01/10 00:18:00;;;;;;;;;;;1.40;99.90;;;;;;5096430;28;19951;-77
2023/01/10 00:20:26;;;;;;;;;;;1.40;99.90;;;;;;5096439;28;19958;-77
2023/01/10 00:22:52;;;;;;;;;;;1.40;99.90;;;;;;5096506;28;20337;-77
2023/01/10 00:25:20;;;;;;;;;;;1.40;99.90;;;;;;5096462;28;20284;-77
2023/01/10 00:27:55;;;;;;;;;;;1.40;99.90;;;;;;5095217;28;19919;-77
2023/01/10 00:30:20;;;;;;;;;;;1.40;99.90;;;;;;5096264;28;19912;-77
2023/01/10 00:32:46;;;;;;;;;;;1.40;99.90;;;;;;5096320;28;19960;-77
2023/01/10 00:35:11;;;;;;;;;;;1.40;99.90;;;;;;5096311;28;20383;-77
2023/01/10 00:37:38;;;;;;;;;;;1.30;99.90;;;;;;5093915;28;20304;-77
2023/01/10 00:40:06;;;;;;;;;;;1.30;99.90;;;;;;5096052;28;20414;-77
2023/01/10 00:45:18;;;;;;;;;;;1.30;99.90;;;;;;5096056;28;19915;-77
2023/01/10 00:47:44;;;;;;;;;;;1.30;99.90;;;;;;5096048;28;19942;-77
2023/01/10 00:50:10;;;;;;;;;;;1.30;99.90;;;;;;5095998;28;19916;-76
2023/01/10 00:52:36;;;;;;;;;;;1.20;99.90;;;;;;5095927;28;20267;-76
2023/01/10 00:55:01;;;;;;;;;;;1.20;99.90;;;;;;5096251;28;19912;-76
2023/01/10 00:57:27;;;;;;;;;;;1.20;99.90;;;;;;5095880;28;20403;-76
2023/01/10 00:59:52;;;;;;;;;;;1.20;99.90;;;;;;5094338;28;20432;-76
2023/01/10 01:02:18;;;;;;;;;;;1.20;99.90;;;;;;5096076;28;20277;-76
2023/01/10 01:04:43;;;;;;;;;;;1.20;99.90;;;;;;5095729;28;19912;-76
2023/01/10 01:07:09;;;;;;;;;;;1.20;99.90;;;;;;5095835;28;19920;-76
2023/01/10 01:10:25;;;;;;;;;;;1.20;99.90;;;;;;5096094;28;20394;-76
2023/01/10 01:12:20;;;;;;;;;;;1.20;99.90;;;;;;5098647;28;19955;-75
2023/01/10 01:14:46;;;;;;;;;;;1.20;99.90;;;;;;5095605;28;19942;-75
2023/01/10 01:17:11;;;;;;;;;;;1.20;99.90;;;;;;5095531;28;19946;-75
2023/01/10 01:19:37;;;;;;;;;;;1.10;99.90;;;;;;5094095;28;19959;-75
2023/01/10 01:22:02;;;;;;;;;;;1.10;99.90;;;;;;5095683;28;20050;-75
2023/01/10 01:24:28;;;;;;;;;;;1.10;99.90;;;;;;5094276;28;19912;-75
2023/01/10 01:26:53;;;;;;;;;;;1.10;99.90;;;;;;5095325;28;19913;-75
2023/01/10 01:29:19;;;;;;;;;;;1.20;99.90;;;;;;5095233;28;19995;-75
2023/01/10 01:31:44;;;;;;;;;;;1.20;99.90;;;;;;5095057;28;19912;-75
2023/01/10 01:34:10;;;;;;;;;;;1.20;99.90;;;;;;5095174;28;19986;-75
2023/01/10 01:36:35;;;;;;;;;;;1.20;99.90;;;;;;5095151;28;20364;-75
2023/01/10 01:39:02;;;;;;;;;;;1.20;99.90;;;;;;5095359;28;20307;-75
2023/01/10 01:44:16;;;;;;;;;;;1.20;99.90;;;;;;5095309;28;19961;-75
2023/01/10 01:46:44;;;;;;;;;;;1.20;99.90;;;;;;5093472;28;19908;-75
2023/01/10 01:49:14;;;;;;;;;;;1.20;99.90;;;;;;5094785;28;19919;-75
2023/01/10 01:51:39;;;;;;;;;;;1.20;99.90;;;;;;5093930;28;19944;-75
2023/01/10 01:54:08;;;;;;;;;;;1.20;99.90;;;;;;5094833;28;19952;-75
2023/01/10 01:56:36;;;;;;;;;;;1.20;99.90;;;;;;5094992;28;20428;-75
2023/01/10 01:59:04;;;;;;;;;;;1.20;99.90;;;;;;5094627;28;20007;-75
2023/01/10 02:01:30;;;;;;;;;;;1.20;99.90;;;;;;5094346;28;19916;-75
2023/01/10 02:04:07;;;;;;;;;;;1.20;99.90;;;;;;5094547;28;19944;-75
2023/01/10 02:06:33;;;;;;;;;;;1.10;99.90;;;;;;5094506;28;19912;-75
2023/01/10 02:09:04;;;;;;;;;;;1.10;99.90;;;;;;5094523;28;20303;-75
2023/01/10 02:11:29;;;;;;;;;;;1.10;99.90;;;;;;5094501;28;20407;-75
2023/01/10 02:13:56;;;;;;;;;;;1.10;99.90;;;;;;5094679;28;19965;-75
2023/01/10 02:16:22;;;;;;;;;;;1.10;99.90;;;;;;5093954;28;19908;-75
2023/01/10 02:18:47;;;;;;;;;;;1.20;99.90;;;;;;5094868;28;20417;-74
2023/01/10 02:21:13;;;;;;;;;;;1.20;99.90;;;;;;5094274;28;20323;-74
2023/01/10 02:23:38;;;;;;;;;;;1.20;99.90;;;;;;5094287;28;19915;-75
2023/01/10 02:26:16;;;;;;;;;;;1.10;99.90;;;;;;5094215;28;19908;-75
2023/01/10 02:28:41;;;;;;;;;;;1.20;99.90;;;;;;5094131;28;20375;-75
2023/01/10 02:31:10;;;;;;;;;;;1.10;99.90;;;;;;5093986;28;19958;-75
2023/01/10 02:33:56;;;;;;;;;;;1.10;99.90;;;;;;5094140;28;19908;-74
2023/01/10 02:36:30;;;;;;;;;;;1.10;99.90;;;;;;5093764;28;20414;-74
2023/01/10 02:39:00;;;;;;;;;;;1.10;99.90;;;;;;5094024;28;20384;-74
2023/01/10 02:41:41;;;;;;;;;;;1.10;99.90;;;;;;5093920;28;19916;-74
2023/01/10 02:44:13;;;;;;;;;;;1.10;99.90;;;;;;5093990;28;19908;-74
2023/01/10 02:46:39;;;;;;;;;;;1.10;99.90;;;;;;5093713;28;19909;-74
2023/01/10 02:49:05;;;;;;;;;;;1.10;99.90;;;;;;5094000;28;19918;-74
2023/01/10 02:51:33;;;;;;;;;;;1.10;99.90;;;;;;5094177;28;20000;-74
2023/01/10 02:53:59;;;;;;;;;;;1.10;99.90;;;;;;5093843;28;20383;-75
2023/01/10 02:56:43;;;;;;;;;;;1.10;99.90;;;;;;5093820;28;19908;-74
2023/01/10 02:59:27;;;;;;;;;;;1.10;99.90;;;;;;5092504;28;19957;-74
2023/01/10 03:02:09;;;;;;;;;;;1.10;99.90;;;;;;5097783;28;19919;-75
2023/01/10 03:05:02;;;;;;;;;;;1.10;99.90;;;;;;5098377;28;20384;-74
2023/01/10 03:07:46;;;;;;;;;;;1.10;99.90;;;;;;5098273;28;20249;-74
2023/01/10 03:10:15;;;;;;;;;;;1.10;99.90;;;;;;5097806;28;19915;-75
2023/01/10 03:12:45;;;;;;;;;;;1.10;99.90;;;;;;5097831;28;19912;-74
2023/01/10 03:15:13;;;;;;;;;;;1.10;99.90;;;;;;5097776;28;20474;-75
2023/01/10 03:17:40;;;;;;;;;;;1.10;99.90;;;;;;5097666;28;20360;-74
2023/01/10 03:20:06;;;;;;;;;;;1.00;99.90;;;;;;5097658;28;19912;-74
2023/01/10 03:22:34;;;;;;;;;;;1.00;99.90;;;;;;5097648;28;19923;-75
2023/01/10 03:25:01;;;;;;;;;;;1.00;99.90;;;;;;5097658;28;19915;-75
2023/01/10 03:27:39;;;;;;;;;;;1.00;99.90;;;;;;5097605;28;20299;-74
2023/01/10 03:30:07;;;;;;;;;;;1.00;99.90;;;;;;5097502;28;19908;-75
2023/01/10 03:32:33;;;;;;;;;;;1.00;99.90;;;;;;5097457;28;20291;-75
2023/01/10 03:35:00;;;;;;;;;;;1.00;99.90;;;;;;5097733;28;19912;-74
2023/01/10 03:37:31;;;;;;;;;;;1.00;99.90;;;;;;5097382;28;19958;-75
2023/01/10 03:40:12;;;;;;;;;;;1.00;99.90;;;;;;5097192;28;19912;-75
2023/01/10 03:45:32;;;;;;;;;;;1.00;99.90;;;;;;5097566;28;20441;-75
2023/01/10 03:48:00;;;;;;;;;;;1.00;99.90;;;;;;5097180;28;19951;-75
2023/01/10 03:50:26;;;;;;;;;;;1.00;99.90;;;;;;5097151;28;20382;-74
2023/01/10 03:52:52;;;;;;;;;;;1.00;99.90;;;;;;5097389;28;19908;-74
2023/01/10 03:55:19;;;;;;;;;;;1.10;99.90;;;;;;5097367;28;19915;-74
2023/01/10 03:57:44;;;;;;;;;;;1.10;99.90;;;;;;5097272;28;19909;-74
2023/01/10 04:00:11;;;;;;;;;;;1.00;99.90;;;;;;5096585;28;19984;-74
2023/01/10 04:02:36;;;;;;;;;;;1.00;99.90;;;;;;5096794;28;20372;-74
2023/01/10 04:05:02;;;;;;;;;;;1.00;99.90;;;;;;5097200;28;19995;-74
2023/01/10 04:07:28;;;;;;;;;;;1.00;99.90;;;;;;5097077;28;19913;-74
2023/01/10 04:09:53;;;;;;;;;;;1.00;99.90;;;;;;5096681;28;19909;-74
2023/01/10 04:12:19;;;;;;;;;;;1.00;99.90;;;;;;5096637;28;20287;-74
2023/01/10 04:14:45;;;;;;;;;;;1.00;99.90;;;;;;5096956;28;19912;-74
2023/01/10 04:17:12;;;;;;;;;;;1.00;99.90;;;;;;5096209;28;19927;-74
2023/01/10 04:19:37;;;;;;;;;;;1.00;99.90;;;;;;5096558;28;19912;-74
2023/01/10 04:22:04;;;;;;;;;;;1.00;99.90;;;;;;5095271;28;19920;-74
2023/01/10 04:24:30;;;;;;;;;;;1.00;99.90;;;;;;5095281;28;19919;-74
2023/01/10 04:26:55;;;;;;;;;;;1.00;99.90;;;;;;5096432;28;19912;-74
2023/01/10 04:29:21;;;;;;;;;;;1.00;99.90;;;;;;5096325;28;20006;-74
2023/01/10 04:31:46;;;;;;;;;;;1.00;99.90;;;;;;5095068;28;19912;-75
2023/01/10 04:34:12;;;;;;;;;;;1.00;99.90;;;;;;5096371;28;19959;-74
2023/01/10 04:36:38;;;;;;;;;;;1.00;99.90;;;;;;5093220;28;20394;-75
2023/01/10 04:39:03;;;;;;;;;;;1.00;99.90;;;;;;5087585;28;19912;-74
2023/01/10 04:41:29;;;;;;;;;;;1.00;99.90;;;;;;5083700;28;19913;-74
2023/01/10 04:43:55;;;;;;;;;;;1.00;99.90;;;;;;5075484;28;19919;-75
2023/01/10 04:46:20;;;;;;;;;;;1.00;99.90;;;;;;5081504;28;19916;-75
2023/01/10 04:48:46;;;;;;;;;;;1.00;99.90;;;;;;5075947;28;20378;-74
2023/01/10 04:51:12;;;;;;;;;;;1.00;99.90;;;;;;5076041;28;19969;-74
2023/01/10 04:53:37;;;;;;;;;;;1.00;99.90;;;;;;5075989;28;19912;-74
2023/01/10 04:56:04;;;;;;;;;;;1.00;99.90;;;;;;5075887;28;19912;-74
2023/01/10 04:58:33;;;;;;;;;;;1.00;99.90;;;;;;5075214;28;19915;-75
2023/01/10 05:00:59;;;;;;;;;;;1.00;99.90;;;;;;5092286;28;19957;-74
2023/01/10 05:03:24;;;;;;;;;;;1.00;99.90;;;;;;5095218;28;19912;-74
2023/01/10 05:05:50;;;;;;;;;;;0.90;99.90;;;;;;5095029;28;19919;-74
2023/01/10 05:08:15;;;;;;;;;;;0.90;99.90;;;;;;5095009;28;19954;-74
2023/01/10 05:10:41;;;;;;;;;;;0.90;99.90;;;;;;5095162;28;19918;-74
2023/01/10 05:13:06;;;;;;;;;;;0.90;99.90;;;;;;5094991;28;20279;-74
2023/01/10 05:15:32;;;;;;;;;;;1.00;99.90;;;;;;5078451;28;19912;-74
2023/01/10 05:17:58;;;;;;;;;;;1.00;99.90;;;;;;5074913;28;19927;-74
2023/01/10 05:20:24;;;;;;;;;;;1.00;99.90;;;;;;5075009;28;20356;-74
2023/01/10 05:22:49;;;;;;;;;;;1.00;99.90;;;;;;5074592;28;19916;-74
2023/01/10 05:25:15;;;;;;;;;;;0.90;99.90;;;;;;5075053;28;20307;-74
2023/01/10 05:27:42;;;;;;;;;;;0.90;99.90;;;;;;5075305;28;20375;-74
2023/01/10 05:30:11;;;;;;;;;;;0.90;99.90;;;;;;5074888;28;19922;-74
2023/01/10 05:32:36;;;;;;;;;;;0.90;99.90;;;;;;5074548;28;19908;-73
2023/01/10 05:35:02;;;;;;;;;;;0.80;99.90;;;;;;5074181;28;19935;-73
2023/01/10 05:37:28;;;;;;;;;;;0.80;99.90;;;;;;5075135;28;19912;-73
2023/01/10 05:39:53;;;;;;;;;;;0.80;99.90;;;;;;5074575;28;19959;-73
2023/01/10 05:42:19;;;;;;;;;;;0.80;99.90;;;;;;5074719;28;19912;-73
2023/01/10 05:44:44;;;;;;;;;;;0.80;99.90;;;;;;5074690;28;19912;-73
2023/01/10 05:47:10;;;;;;;;;;;0.80;99.90;;;;;;5074389;28;19916;-73
2023/01/10 05:49:35;;;;;;;;;;;0.80;99.90;;;;;;5074560;28;19962;-73
2023/01/10 05:52:01;;;;;;;;;;;0.80;99.90;;;;;;5074529;28;20306;-74
2023/01/10 05:54:28;;;;;;;;;;;0.80;99.90;;;;;;5074503;28;20319;-74
2023/01/10 05:56:54;;;;;;;;;;;0.90;99.90;;;;;;5074689;28;19920;-74
2023/01/10 05:59:19;;;;;;;;;;;0.90;99.90;;;;;;5074495;28;19916;-74
2023/01/10 06:01:45;;;;;;;;;;;0.90;99.90;;;;;;5074047;28;20319;-74
2023/01/10 06:04:10;;;;;;;;;;;0.90;99.90;;;;;;5074614;28;20003;-73
2023/01/10 06:06:36;;;;;;;;;;;0.90;99.90;;;;;;5074214;28;19909;-74
2023/01/10 06:09:01;;;;;;;;;;;0.90;99.90;;;;;;5074761;28;19962;-74
2023/01/10 06:11:30;;;;;;;;;;;0.80;99.90;;;;;;5074481;28;20388;-74
2023/01/10 06:13:56;;;;;;;;;;;0.80;99.90;;;;;;5074197;28;19991;-74
2023/01/10 06:16:22;;;;;;;;;;;0.80;99.90;;;;;;5073836;28;19962;-74
2023/01/10 06:18:47;;;;;;;;;;;0.80;99.90;;;;;;5074224;28;19921;-74
2023/01/10 06:21:13;;;;;;;;;;;0.80;99.90;;;;;;5074293;28;19919;-74
2023/01/10 06:23:38;;;;;;;;;;;0.80;99.90;;;;;;5074048;28;19912;-74
2023/01/10 06:26:04;;;;;;;;;;;0.80;99.90;;;;;;5074337;28;19908;-74
2023/01/10 06:28:30;;;;;;;;;;;0.80;99.90;;;;;;5073923;28;19948;-74
2023/01/10 06:30:55;;;;;;;;;;;0.80;99.90;;;;;;5073972;28;19994;-74
2023/01/10 06:33:21;;;;;;;;;;;0.80;99.90;;;;;;5073918;28;19913;-74
2023/01/10 06:35:47;;;;;;;;;;;0.80;99.90;;;;;;5073147;28;20376;-74
2023/01/10 06:38:13;;;;;;;;;;;0.80;99.90;;;;;;5073800;28;19939;-73
2023/01/10 06:40:38;;;;;;;;;;;0.80;99.90;;;;;;5072557;28;20006;-74
2023/01/10 06:43:04;;;;;;;;;;;0.90;99.90;;;;;;5073133;28;19935;-74
2023/01/10 06:45:29;;;;;;;;;;;0.90;99.90;;;;;;5074097;28;19951;-74
2023/01/10 06:47:55;;;;;;;;;;;0.90;99.90;;;;;;5073565;28;19913;-74
2023/01/10 06:50:21;;;;;;;;;;;0.90;99.90;;;;;;5073683;28;20011;-73
2023/01/10 06:52:53;;;;;;;;;;;0.90;99.90;;;;;;5073711;28;19919;-73
2023/01/10 06:55:19;;;;;;;;;;;0.90;99.90;;;;;;5074019;28;20372;-74
2023/01/10 06:57:44;;;;;;;;;;;0.90;99.90;;;;;;5073664;28;19913;-74
2023/01/10 07:00:10;;;;;;;;;;;1.00;99.90;;;;;;5073504;28;19921;-74
2023/01/10 07:02:36;;;;;;;;;;;1.00;99.90;;;;;;5073385;28;19912;-74
2023/01/10 07:05:01;;;;;;;;;;;1.00;99.90;;;;;;5074275;28;20262;-74
2023/01/10 07:07:27;;;;;;;;;;;1.00;99.90;;;;;;5073579;28;19909;-74
2023/01/10 07:09:53;;;;;;;;;;;1.00;99.90;;;;;;5073523;28;20015;-74
2023/01/10 07:12:18;;;;;;;;;;;1.00;99.90;;;;;;5073828;28;19912;-74
2023/01/10 07:14:44;;;;;;;;;;;1.00;99.90;;;;;;5073798;28;19913;-74
2023/01/10 07:17:10;;;;;;;;;;;1.00;99.90;;;;;;5073148;28;19935;-74
2023/01/10 07:19:35;;;;;;;;;;;0.90;99.90;;;;;;5073402;28;19912;-74
2023/01/10 07:22:02;;;;;;;;;;;0.90;99.90;;;;;;5073345;28;20007;-74
2023/01/10 07:24:28;;;;;;;;;;;1.00;99.90;;;;;;5073443;28;19917;-74
2023/01/10 07:26:54;;;;;;;;;;;1.00;99.90;;;;;;5073692;28;19999;-74
2023/01/10 07:29:20;;;;;;;;;;;1.00;99.90;;;;;;5073311;28;19944;-74
2023/01/10 07:31:45;;;;;;;;;;;0.90;99.90;;;;;;5073097;28;19912;-74
2023/01/10 07:34:11;;;;;;;;;;;0.90;99.90;;;;;;5073342;28;19912;-74
2023/01/10 07:36:37;;;;;;;;;;;0.90;99.90;;;;;;5073269;28;19913;-74
2023/01/10 07:39:03;;;;;;;;;;;0.90;99.90;;;;;;5073201;28;19936;-74
2023/01/10 07:41:28;;;;;;;;;;;0.90;99.90;;;;;;5073154;28;19916;-74
2023/01/10 07:43:54;;;;;;;;;;;1.00;99.90;;;;;;5073247;28;20059;-73
2023/01/10 07:46:19;;;;;;;;;;;1.00;99.90;;;;;;5074738;28;20085;-74
2023/01/10 07:48:45;;;;;;;;;;;1.00;99.90;;;;;;5076862;28;19916;-74
2023/01/10 07:51:11;;;;;;;;;;;0.90;99.90;;;;;;5076844;28;19917;-73
2023/01/10 07:53:37;;;;;;;;;;;0.90;99.90;;;;;;5076805;28;19954;-73
2023/01/10 07:56:03;;;;;;;;;;;0.90;99.90;;;;;;5076758;28;19938;-73
2023/01/10 07:58:29;;;;;;;;;;;0.90;99.90;;;;;;5076998;28;19971;-73
2023/01/10 08:00:58;;;;;;;;;;;0.90;99.90;;;;;;5076392;28;20367;-74
2023/01/10 08:03:24;;;;;;;;;;;0.90;99.90;;;;;;5076645;28;19991;-74
2023/01/10 08:05:49;;;;;;;;;;;0.90;99.90;;;;;;5076592;28;19986;-74
2023/01/10 08:08:16;;;;;;;;;;;1.00;99.90;;;;;;5076533;28;19947;-74
2023/01/10 08:10:41;;;;;;;;;;;1.00;99.90;;;;;;5076557;28;19919;-74
2023/01/10 08:13:07;;;;;;;;;;;1.00;99.90;;;;;;5076772;28;20011;-74
2023/01/10 08:15:33;;;;;;;;;;;1.00;99.90;;;;;;5076748;28;19913;-74
2023/01/10 08:17:59;;;;;;;;;;;1.00;99.90;;;;;;5076013;28;19920;-74
2023/01/10 08:20:25;;;;;;;;;;;1.10;99.90;;;;;;5076561;28;20257;-74
2023/01/10 08:22:51;;;;;;;;;;;1.10;99.90;;;;;;5076316;28;19919;-74
2023/01/10 08:25:16;;;;;;;;;;;1.10;99.90;;;;;;5076538;28;19920;-73
2023/01/10 08:27:42;;;;;;;;;;;1.10;99.90;;;;;;5076230;28;19913;-74
2023/01/10 08:30:08;;;;;;;;;;;1.00;99.90;;;;;;5076146;28;19913;-73
2023/01/10 08:32:33;;;;;;;;;;;1.00;99.90;;;;;;5075836;28;19918;-74
2023/01/10 08:34:59;;;;;;;;;;;1.00;99.90;;;;;;5076338;28;19913;-74
2023/01/10 08:37:24;;;;;;;;;;;1.00;99.90;;;;;;5076641;28;19919;-74
2023/01/10 08:39:50;;;;;;;;;;;1.00;99.90;;;;;;5076150;28;20434;-74
2023/01/10 08:42:16;;;;;;;;;;;1.10;99.90;;;;;;5075999;28;19962;-74
2023/01/10 08:44:42;;;;;;;;;;;1.00;99.90;;;;;;5075885;28;20433;-74
2023/01/10 08:47:07;;;;;;;;;;;1.00;99.90;;;;;;5075600;28;19917;-74
2023/01/10 08:49:33;;;;;;;;;;;1.00;99.90;;;;;;5075843;28;19916;-74
2023/01/10 08:51:59;;;;;;;;;;;1.00;99.90;;;;;;5076600;28;19953;-74
2023/01/10 08:54:25;;;;;;;;;;;1.00;99.90;;;;;;5075726;28;19948;-74
2023/01/10 08:56:50;;;;;;;;;;;1.00;99.90;;;;;;5075556;28;19956;-74
2023/01/10 08:59:16;;;;;;;;;;;1.00;99.90;;;;;;5075362;28;20376;-74
2023/01/10 09:01:42;;;;;;;;;;;1.00;99.90;;;;;;5075511;28;20377;-74
2023/01/10 09:04:07;;;;;;;;;;;1.00;99.90;;;;;;5075597;28;19908;-74
2023/01/10 09:06:33;;;;;;;;;;;1.00;99.90;;;;;;5075451;28;19916;-74
2023/01/10 09:08:58;;;;;;;;;;;1.00;99.90;;;;;;5075542;28;19912;-74
2023/01/10 09:11:24;;;;;;;;;;;1.00;99.90;;;;;;5075402;28;19959;-74
2023/01/10 09:13:50;;;;;;;;;;;1.00;99.90;;;;;;5075677;28;19913;-74
2023/01/10 09:16:16;;;;;;;;;;;1.00;99.90;;;;;;5075160;28;19958;-75
2023/01/10 09:18:41;;;;;;;;;;;1.00;99.90;;;;;;5075057;28;19935;-74
2023/01/10 09:21:07;;;;;;;;;;;1.00;99.90;;;;;;5075142;28;20384;-74
2023/01/10 09:23:32;;;;;;;;;;;1.00;99.90;;;;;;5075103;28;20003;-75
2023/01/10 09:25:59;;;;;;;;;;;1.00;99.90;;;;;;5075077;28;19912;-74
2023/01/10 09:28:24;;;;;;;;;;;1.00;99.90;;;;;;5074931;28;19918;-74
2023/01/10 09:30:50;;;;;;;;;;;1.00;99.90;;;;;;5075217;28;19916;-74
2023/01/10 09:33:16;;;;;;;;;;;1.00;99.90;;;;;;5073343;28;19909;-74
2023/01/10 09:35:42;;;;;;;;;;;1.00;99.90;;;;;;5074811;28;19913;-74
2023/01/10 09:38:10;;;;;;;;;;;1.00;99.90;;;;;;5075027;28;19908;-74
2023/01/10 09:40:54;;;;;;;;;;;1.00;99.90;;;;;;5074966;28;19919;-74
2023/01/10 09:43:38;;;;;;;;;;;1.00;99.90;;;;;;5074952;28;19991;-74
2023/01/10 09:46:07;;;;;;;;;;;1.10;99.90;;;;;;5074661;28;19968;-74
2023/01/10 09:48:32;;;;;;;;;;;1.10;99.90;;;;;;5074320;28;19909;-74
2023/01/10 09:51:04;;;;;;;;;;;1.10;99.90;;;;;;5074570;28;20384;-74
2023/01/10 09:53:32;;;;;;;;;;;1.10;99.90;;;;;;5074528;28;19958;-74
2023/01/10 09:55:59;;;;;;;;;;;1.10;99.90;;;;;;5074798;28;19908;-74
2023/01/10 09:58:30;;;;;;;;;;;1.20;99.90;;;;;;5074656;28;19915;-74
2023/01/10 10:00:56;;;;;;;;;;;1.10;99.90;;;;;;5074389;28;20316;-74
2023/01/10 10:03:41;;;;;;;;;;;1.10;99.90;;;;;;5074188;28;19986;-74
2023/01/10 10:06:09;;;;;;;;;;;1.10;99.90;;;;;;5074565;28;19909;-74
2023/01/10 10:08:35;;;;;;;;;;;1.10;99.90;;;;;;5074784;28;20291;-74
2023/01/10 10:11:09;;;;;;;;;;;1.10;99.90;;;;;;5074220;28;20003;-74
2023/01/10 10:13:47;;;;;;;;;;;1.20;99.90;;;;;;5074211;28;20387;-74
2023/01/10 10:16:16;;;;;;;;;;;1.20;99.90;;;;;;5074163;28;19915;-74
2023/01/10 10:18:50;;;;;;;;;;;1.20;99.90;;;;;;5073979;28;19920;-74
2023/01/10 10:21:18;;;;;;;;;;;1.20;99.90;;;;;;5073991;28;19913;-74
2023/01/10 10:23:50;;;;;;;;;;;1.20;99.90;;;;;;5074058;28;20431;-74
2023/01/10 10:26:27;;;;;;;;;;;1.20;99.90;;;;;;5074388;28;19909;-74
2023/01/10 10:29:06;;;;;;;;;;;1.20;99.90;;;;;;5074169;28;20288;-74
2023/01/10 10:31:31;;;;;;;;;;;1.30;99.90;;;;;;5074022;28;20003;-75
2023/01/10 10:34:03;;;;;;;;;;;1.40;99.90;;;;;;5073951;28;20017;-74
2023/01/10 10:36:42;;;;;;;;;;;1.40;99.90;;;;;;5073894;28;19995;-74
2023/01/10 10:39:12;;;;;;;;;;;1.40;99.90;;;;;;5073792;28;20365;-74
2023/01/10 10:41:39;;;;;;;;;;;1.40;99.90;;;;;;5073768;28;19963;-74
2023/01/10 10:44:17;;;;;;;;;;;1.40;99.90;;;;;;5073852;28;19997;-74
2023/01/10 10:46:43;;;;;;;;;;;1.40;99.90;;;;;;5073607;28;19908;-74
2023/01/10 10:49:20;;;;;;;;;;;1.30;99.90;;;;;;5073746;28;20288;-74
2023/01/10 10:51:50;;;;;;;;;;;1.40;99.90;;;;;;5074061;28;19915;-74
2023/01/10 10:54:16;;;;;;;;;;;1.40;99.90;;;;;;5073743;28;19909;-74
2023/01/10 10:56:42;;;;;;;;;;;1.50;99.90;;;;;;5074103;28;19958;-74
2023/01/10 10:59:08;;;;;;;;;;;1.50;99.90;;;;;;5073624;28;19912;-74
2023/01/10 11:01:34;;;;;;;;;;;1.50;99.90;;;;;;5073957;28;19916;-74
2023/01/10 11:04:08;;;;;;;;;;;1.40;99.90;;;;;;5073628;28;20352;-74
2023/01/10 11:06:34;;;;;;;;;;;1.50;99.90;;;;;;5073555;28;19935;-74
2023/01/10 11:09:01;;;;;;;;;;;1.50;99.90;;;;;;5073528;28;19909;-74
2023/01/10 11:11:33;;;;;;;;;;;1.50;99.90;;;;;;5073584;28;19909;-74
2023/01/10 11:14:06;;;;;;;;;;;1.50;99.90;;;;;;5073524;28;19934;-74
2023/01/10 11:16:32;;;;;;;;;;;1.40;99.90;;;;;;5073080;28;19915;-74
2023/01/10 11:19:16;;;;;;;;;;;1.50;99.90;;;;;;5073501;28;20372;-74
2023/01/10 11:21:45;;;;;;;;;;;1.50;99.90;;;;;;5075804;28;19920;-74
2023/01/10 11:24:19;;;;;;;;;;;1.50;99.90;;;;;;5077996;28;20339;-74
2023/01/10 11:26:45;;;;;;;;;;;1.50;99.90;;;;;;5077406;28;20011;-74
2023/01/10 11:29:17;;;;;;;;;;;1.60;99.90;;;;;;5077432;28;19951;-74
2023/01/10 11:31:43;;;;;;;;;;;1.60;99.90;;;;;;5077047;28;20273;-74
2023/01/10 11:34:20;;;;;;;;;;;1.70;99.90;;;;;;5077297;28;20003;-74
2023/01/10 11:36:52;;;;;;;;;;;1.70;99.90;;;;;;5077484;28;20254;-74
2023/01/10 11:39:17;;;;;;;;;;;1.70;99.90;;;;;;5077104;28;19961;-74
2023/01/10 11:41:43;;;;;;;;;;;1.70;99.90;;;;;;5077002;28;19917;-74
2023/01/10 11:44:16;;;;;;;;;;;1.60;99.90;;;;;;5077327;28;19909;-74
2023/01/10 11:46:42;;;;;;;;;;;1.70;99.90;;;;;;5076756;28;19909;-74
2023/01/10 11:49:13;;;;;;;;;;;1.70;99.90;;;;;;5076927;28;19932;-74
2023/01/10 11:51:43;;;;;;;;;;;1.70;99.90;;;;;;5076935;28;19947;-74
2023/01/10 11:54:16;;;;;;;;;;;1.70;99.90;;;;;;5077083;28;19915;-73
2023/01/10 11:56:46;;;;;;;;;;;1.70;99.90;;;;;;5076699;28;19909;-73
2023/01/10 11:59:14;;;;;;;;;;;1.70;99.90;;;;;;5076737;28;20265;-73
2023/01/10 12:01:44;;;;;;;;;;;1.70;99.90;;;;;;5076376;28;19912;-74
2023/01/10 12:04:14;;;;;;;;;;;1.70;99.90;;;;;;5077020;28;20356;-73
2023/01/10 12:06:47;;;;;;;;;;;1.70;99.90;;;;;;5076846;28;20368;-73
2023/01/10 12:09:31;;;;;;;;;;;1.70;99.90;;;;;;5077109;28;20307;-73
2023/01/10 12:12:01;;;;;;;;;;;1.70;99.90;;;;;;5076858;28;19931;-74
2023/01/10 12:14:26;;;;;;;;;;;1.70;99.90;;;;;;5076498;28;20019;-75
2023/01/10 12:17:00;;;;;;;;;;;1.80;99.90;;;;;;5076314;28;20381;-74
2023/01/10 12:19:26;;;;;;;;;;;1.80;99.90;;;;;;5076614;28;19908;-74
2023/01/10 12:21:51;;;;;;;;;;;1.80;99.90;;;;;;5076593;28;19920;-74
2023/01/10 12:24:25;;;;;;;;;;;1.80;99.90;;;;;;5076328;28;19995;-73
2023/01/10 12:26:52;;;;;;;;;;;1.80;99.90;;;;;;5076230;28;19920;-73
2023/01/10 12:29:24;;;;;;;;;;;1.80;99.90;;;;;;5076190;28;19913;-74
2023/01/10 12:31:50;;;;;;;;;;;1.70;99.90;;;;;;5075150;28;19948;-74
2023/01/10 12:34:21;;;;;;;;;;;1.70;99.90;;;;;;5075666;28;19916;-73
2023/01/10 12:37:06;;;;;;;;;;;1.70;99.90;;;;;;5076301;28;19995;-73
2023/01/10 12:39:35;;;;;;;;;;;1.60;99.90;;;;;;5075702;28;19915;-73
2023/01/10 12:45:11;;;;;;;;;;;1.60;99.90;;;;;;5075985;28;20426;-74
2023/01/10 12:47:46;;;;;;;;;;;1.50;99.90;;;;;;5075342;28;19959;-74
2023/01/10 12:50:13;;;;;;;;;;;1.50;99.90;;;;;;5075844;28;19909;-74
2023/01/10 12:52:46;;;;;;;;;;;1.50;99.90;;;;;;5075782;28;19908;-74
2023/01/10 12:55:13;;;;;;;;;;;1.60;99.90;;;;;;5075718;28;19949;-74
2023/01/10 12:57:39;;;;;;;;;;;1.60;99.90;;;;;;5075526;28;19909;-74
2023/01/10 13:00:06;;;;;;;;;;;1.50;99.90;;;;;;5075348;28;19913;-74
2023/01/10 13:02:42;;;;;;;;;;;1.50;99.90;;;;;;5075253;28;19908;-74
2023/01/10 13:05:15;;;;;;;;;;;1.50;99.90;;;;;;5075713;28;19999;-74
2023/01/10 13:07:41;;;;;;;;;;;1.50;99.90;;;;;;5075583;28;19913;-74
2023/01/10 13:10:08;;;;;;;;;;;1.50;99.90;;;;;;5075171;28;19919;-74
2023/01/10 13:12:39;;;;;;;;;;;1.60;99.90;;;;;;5075318;28;20303;-74
2023/01/10 13:15:09;;;;;;;;;;;1.60;99.90;;;;;;5075368;28;19915;-74
2023/01/10 13:17:43;;;;;;;;;;;1.60;99.90;;;;;;5075239;28;20342;-74
2023/01/10 13:20:14;;;;;;;;;;;1.60;99.90;;;;;;5075709;28;19909;-74
2023/01/10 13:22:41;;;;;;;;;;;1.70;99.90;;;;;;5075359;28;20019;-73
2023/01/10 13:25:17;;;;;;;;;;;1.60;99.90;;;;;;5075397;28;19940;-74
2023/01/10 13:27:43;;;;;;;;;;;1.70;99.90;;;;;;5075199;28;20300;-73
2023/01/10 13:30:23;;;;;;;;;;;1.60;99.90;;;;;;5089782;28;19984;-74
2023/01/10 13:32:55;;;;;;;;;;;1.60;99.90;;;;;;5077346;28;20373;-74
2023/01/10 13:35:20;;;;;;;;;;;1.60;99.90;;;;;;5090548;28;19913;-74
2023/01/10 13:37:53;;;;;;;;;;;1.60;99.90;;;;;;5074671;28;19917;-74
2023/01/10 13:40:26;;;;;;;;;;;1.60;99.90;;;;;;5082038;28;20016;-74
2023/01/10 13:43:19;;;;;;;;;;;1.60;99.90;;;;;;5093435;28;19908;-75
2023/01/10 13:45:45;;;;;;;;;;;1.60;99.90;;;;;;5088024;28;19912;-74
2023/01/10 13:48:24;;;;;;;;;;;1.70;99.90;;;;;;5074589;28;19912;-74
2023/01/10 13:51:10;;;;;;;;;;;1.70;99.90;;;;;;5084262;28;19915;-74
2023/01/10 13:53:41;;;;;;;;;;;1.80;99.90;;;;;;5077595;28;19912;-74
2023/01/10 13:56:26;;;;;;;;;;;1.70;99.90;;;;;;5074771;28;19908;-74
2023/01/10 14:04:22;;;;;;;;;;;1.70;99.90;;;;;;5082398;28;19970;-73
2023/01/10 14:07:08;;;;;;;;;;;1.60;99.90;;;;;;5094007;28;19909;-74
2023/01/10 14:09:35;;;;;;;;;;;1.70;99.90;;;;;;5054089;28;19916;-74
2023/01/10 14:12:02;;;;;;;;;;;1.70;99.90;;;;;;5092103;28;20398;-74
2023/01/10 14:14:30;;;;;;;;;;;1.60;99.90;;;;;;5093891;28;19983;-74
2023/01/10 14:16:57;;;;;;;;;;;1.60;99.90;;;;;;5088683;28;19981;-74
2023/01/10 14:19:26;;;;;;;;;;;1.60;99.90;;;;;;5091719;28;19931;-74
2023/01/10 14:21:56;;;;;;;;;;;1.60;99.90;;;;;;5090743;28;20308;-74
2023/01/10 14:24:24;;;;;;;;;;;1.60;99.90;;;;;;5073810;28;19952;-74
2023/01/10 14:26:51;;;;;;;;;;;1.50;99.90;;;;;;5073020;28;20288;-74
2023/01/10 14:29:17;;;;;;;;;;;1.50;99.90;;;;;;5073357;28;19908;-74
2023/01/10 14:31:47;;;;;;;;;;;1.50;99.90;;;;;;5074182;28;19915;-74
2023/01/10 14:34:23;;;;;;;;;;;1.50;99.90;;;;;;5073943;28;19909;-74
2023/01/10 14:36:59;;;;;;;;;;;1.40;99.90;;;;;;5093380;28;20317;-74
2023/01/10 14:39:26;;;;;;;;;;;1.40;99.90;;;;;;5073934;28;19908;-74
2023/01/10 14:41:53;;;;;;;;;;;1.40;99.90;;;;;;5073974;28;19919;-74
2023/01/10 14:44:37;;;;;;;;;;;1.40;99.90;;;;;;5074159;28;19908;-74
2023/01/10 14:47:03;;;;;;;;;;;1.40;99.90;;;;;;5073987;28;19961;-74
2023/01/10 14:49:32;;;;;;;;;;;1.30;99.90;;;;;;5072924;28;19909;-74
2023/01/10 14:52:30;;;;;;;;;;;1.40;99.90;;;;;;5073478;28;19943;-74
2023/01/10 14:55:05;;;;;;;;;;;1.40;99.90;;;;;;5050318;28;19909;-74
2023/01/10 14:57:30;;;;;;;;;;;1.40;99.90;;;;;;5073500;28;19913;-74